Station KGCA2 - 9459881 - King Cove, AK Image indicating link to RSS feed of recent meteorological observations for station KGCA2


Conditions at KGCA2 as of
(3:48 am AKDT)
1148 GMT on 09/02/2026:
     

Click on the graph icon in the table below to see a time series plot of the last five days of that observation.

5-day plot - Wind Direction Wind Direction (WDIR):NNW ( 330 deg true )
5-day plot - Wind Speed Wind Speed (WSPD): 12.0 kts
5-day plot - Wind Gust Wind Gust (GST): 20.0 kts
5-day plot - Atmospheric Pressure Atmospheric Pressure (PRES):30.08 in
5-day plot - Water Temperature Water Temperature (WTMP): 50.0 °F
5-day plot - Wind Speed at 10 Meters Wind Speed at 10 meters (WSPD10M): 11.7 kts
5-day plot - Wind Speed at 20 Meters Wind Speed at 20 meters (WSPD20M): 13.6 kts
5-day plot -  Wind Speed, Wind Gust and Atmospheric Pressure Combined plot of Wind Speed, Gust, and Air Pressure
NOS Water Level Observation Network Water Level
Previous observations
TIME
(AKDT)
5-day plot - Wind Direction
WDIR
 
5-day plot - Wind Speed
WSPD
kts
5-day plot - Wind Gust
GST
kts
5-day plot - Wave Height
WVHT
ft
5-day plot - Dominant Wave Period
DPD
sec
5-day plot - Average Wave Period
APD
sec
5-day plot - Mean Wave Direction
MWD
 
5-day plot - Atmospheric Pressure
PRES
in
5-day plot - Pressure Tendency
PTDY
in
5-day plot - Air Temperature
ATMP
°F
5-day plot - Water Temperature
WTMP
°F
5-day plot - Dew Point
DEWP
°F
5-day plot - Salinity
SAL
psu
5-day plot - Visibility
VIS
nmi
5-day plot - Tide (above MLLW)
TIDE
ft
2026-09-02 03:42 amNNW 17.1 22.0----30.08-- 49.3----
2026-09-02 03:36 amNNW 18.1 24.1----30.08-- 49.3----
2026-09-02 03:30 amNNW 15.9 22.9----30.08- 63.1 49.3----
2026-09-02 03:24 amNNW 20.0 24.1----30.08- 63.3 49.3----
2026-09-02 03:18 amNNW 15.0 20.0----30.08-- 50.2----
2026-09-02 03:12 amNNW 11.1 15.0----30.08-- 49.3----
2026-09-02 03:06 amNNW 9.9 18.1----30.08-- 49.3----
2026-09-02 03:00 amNNW 12.0 18.1----30.08+0.01 63.9 49.1----
2026-09-02 02:54 amNNW 12.0 20.0----30.08- 63.5 49.5----
2026-09-02 02:48 amNNW 13.0 18.1----30.08- 63.5 49.3----
2026-09-02 02:42 amNNW 13.0 20.0----30.08- 63.3 49.1----
2026-09-02 02:36 amNNW 12.0 19.0----30.07- 63.3 49.3----
2026-09-02 02:30 amNNW 15.9 21.0----30.07- 63.1 49.3----
2026-09-02 02:24 am N 13.0 18.1----30.07- 63.1 49.5----
2026-09-02 02:18 am N 11.1 18.1----30.08-- 49.3----
2026-09-02 02:12 am N 5.1 17.1----30.08-- 49.3----
2026-09-02 02:06 am N 8.9 15.9----30.07-- 49.3----
2026-09-02 02:00 am- 0.0 6.0----30.07+0.03 61.7 49.3----
2026-09-02 01:54 amSSE 5.1 12.0----30.07- 62.1 49.3----
2026-09-02 01:48 amNNW 11.1 17.1----30.07- 63.5 49.1----
2026-09-02 01:42 am N 11.1 19.0----30.06- 63.3 49.3----
2026-09-02 01:36 am N 8.0 11.1----30.07- 63.1 49.3----
2026-09-02 01:30 am- 0.0 2.9----30.07- 62.2 49.3----
2026-09-02 01:24 am- 0.0 2.9----30.07- 61.9 49.3----
2026-09-02 01:18 am SE 2.9 4.1----30.07-- 49.3----
2026-09-02 01:12 am SW 2.9 9.9----30.08-- 49.3----
2026-09-02 01:06 amNNW 8.9 12.0----30.07-- 49.3----
2026-09-02 01:00 amNNW 8.9 13.0----30.07+0.05 62.6 49.1----
2026-09-02 12:54 amNNW 6.0 12.0----30.07- 62.2 49.1----
2026-09-02 12:48 amNNW 7.0 12.0----30.07- 62.4 49.1----
2026-09-02 12:42 amNNW 4.1 7.0----30.08- 62.4 49.3----
2026-09-02 12:36 amENE 2.9 5.1----30.08- 62.1 49.3----
2026-09-02 12:30 am SW 4.1 5.1----30.08- 62.1 49.3----
2026-09-02 12:24 am- 0.0 4.1----30.07- 62.2 49.3----
2026-09-02 12:18 amSSW 4.1 12.0----30.07- 62.4 49.3----
2026-09-02 12:12 am N 6.0 12.0----30.07- 62.6 49.3----
2026-09-02 12:06 am N 6.0 13.0----30.07- 62.4 49.3----
2026-09-02 12:00 amNNE 7.0 9.9----30.07- 63.7 49.1----
2026-09-01 11:54 pmENE 7.0 11.1----30.06- 63.1 49.1----
2026-09-01 11:48 pmENE 4.1 7.0----30.06-- 49.3----
2026-09-01 11:42 pmSSW 1.9 5.1----30.06-- 49.3----
2026-09-01 11:36 pm- 0.0 6.0----30.06-- 49.3----
2026-09-01 11:30 pm SE 5.1 8.9----30.06- 61.2 49.1----
2026-09-01 11:24 pmSSW 1.9 4.1----30.05- 61.7 49.1----
2026-09-01 11:18 pmWNW 1.9 2.9----30.05-- 49.3----
2026-09-01 11:12 pm NE 1.0 1.9----30.05-- 49.3----
2026-09-01 11:06 pm S 1.9 2.9----30.04-- 49.1----
2026-09-01 11:00 pm NE 1.9 5.1----30.04+0.03 62.6 49.1----
2026-09-01 10:54 pmSSW 4.1 5.1----30.04- 63.0 49.1----
2026-09-01 10:48 pmSSW 1.9 4.1----30.04- 63.0 49.1----
2026-09-01 10:42 pmSSW 1.9 4.1----30.04- 62.4 49.1----
2026-09-01 10:36 pm W 1.9 5.1----30.04- 62.1 49.1----
2026-09-01 10:30 pm NE 4.1 8.0----30.04- 61.7 49.1----
2026-09-01 10:24 pmENE 2.9 6.0----30.04- 61.9 49.1----
2026-09-01 10:18 pm- 0.0 6.0----30.03-- 49.1----
2026-09-01 10:12 pm NE 1.0 11.1----30.03-- 49.1----
2026-09-01 10:06 pm N 5.1 14.0----30.03-- 49.1----
2026-09-01 10:00 pmNNW 7.0 12.0----30.03+0.03 62.4 49.1----
2026-09-01 09:54 pm W 2.9 4.1----30.03- 62.4 49.3----
2026-09-01 09:48 pm N 2.9 5.1----30.03- 62.6 49.3----
2026-09-01 09:42 pm- 0.0 2.9----30.03- 62.6 48.9----
2026-09-01 09:36 pmSSW 2.9 9.9----30.02- 62.8 49.3----
2026-09-01 09:30 pmESE 2.9 8.0----30.02- 62.8 49.1----
2026-09-01 09:24 pm- 0.0 2.9----30.02- 61.9 49.5----
2026-09-01 09:18 pm NE 1.9 4.1------- 49.5----
2026-09-01 09:12 pm S 1.9 7.0------- 49.5----
2026-09-01 09:06 pm NW 4.1 5.1------- 49.5----
2026-09-01 09:00 pm E 1.9 5.1------ 63.1 49.3----
2026-09-01 08:54 pmNNW 1.9 13.0------ 62.6 49.1----
2026-09-01 08:48 pmNNW 5.1 8.9----30.02- 62.6 49.5----
2026-09-01 08:42 pmNNW 5.1 8.9----30.02- 62.1 49.5----
2026-09-01 08:36 pmWSW 4.1 13.0----30.01- 63.0 49.5----
2026-09-01 08:30 pm N 12.0 19.0----30.01- 64.2 49.5----
2026-09-01 08:24 pmNNE 13.0 19.0----30.01- 62.6 49.3----
2026-09-01 08:18 pm N 15.9 24.1----30.01-- 49.3----
2026-09-01 08:12 pm N 14.0 22.0----30.01-- 49.5----
2026-09-01 08:06 pm N 20.0 25.1----30.01-- 49.3----
2026-09-01 08:00 pm N 19.0 28.0----30.01+0.01 61.5 49.3----
2026-09-01 07:54 pmNNE 11.1 20.0----30.00- 62.1 49.3----
2026-09-01 07:48 pm N 11.1 20.0----30.01-- 49.3----
2026-09-01 07:42 pm N 12.0 19.0----30.01-- 49.3----
2026-09-01 07:36 pm N 18.1 22.0----30.00-- 49.1----
2026-09-01 07:30 pm N 17.1 22.9----30.00- 61.7 49.1----
2026-09-01 07:24 pm N 19.0 25.1----30.00- 61.9 49.1----
2026-09-01 07:18 pm N 17.1 22.0----30.00-- 49.3----
2026-09-01 07:12 pm N 15.0 22.0----30.00-- 49.3----
2026-09-01 07:06 pm N 15.9 22.9----30.00-- 49.3----
2026-09-01 07:00 pmNNE 15.9 22.9----30.00+0.02 63.9 49.3----
2026-09-01 06:54 pmNNE 7.0 15.9----30.01- 64.9 49.3----
2026-09-01 06:48 pm NE 11.1 15.9----29.99- 65.7 49.5----
2026-09-01 06:42 pm N 4.1 19.0----30.00- 64.4 49.5----
2026-09-01 06:36 pm N 14.0 19.0----29.99- 62.8 49.5----
2026-09-01 06:30 pmNNE 13.0 20.0----30.00- 62.2 49.5----
2026-09-01 06:24 pm N 17.1 22.9----29.99- 62.1 49.1----
2026-09-01 06:18 pm N 15.9 22.0----29.99-- 49.5----
2026-09-01 06:12 pm N 17.1 25.1----29.99-- 49.3----
2026-09-01 06:06 pm N 9.9 20.0----29.99-- 49.5----
2026-09-01 06:00 pmNNE 13.0 21.0----29.99+0.01 63.5 48.9----
2026-09-01 05:54 pmNNE 11.1 20.0----29.99- 63.1 49.3----
2026-09-01 05:48 pm N 15.9 21.0----29.99- 63.9 49.1----
2026-09-01 05:42 pm N 15.9 20.0----29.99- 62.8 48.9----
2026-09-01 05:36 pm N 14.0 17.1----30.00- 61.5 49.1----
2026-09-01 05:30 pm N 12.0 19.0----30.00- 61.5 49.3----
2026-09-01 05:24 pm N 15.9 22.9----30.00- 60.8 49.3----
2026-09-01 05:18 pm N 15.9 22.0----30.00-- 49.1----
2026-09-01 05:12 pm N 12.0 20.0----30.00-- 49.6----
2026-09-01 05:06 pm N 12.0 21.0----30.00-- 49.1----
2026-09-01 05:00 pm N 13.0 22.0----30.00+0.02 61.5 49.8----
2026-09-01 04:54 pm N 17.1 22.0----30.00- 61.7 49.3----
2026-09-01 04:48 pm N 14.0 19.0----30.00- 62.6 49.3----
2026-09-01 04:42 pmNNE 8.0 24.1----29.99- 62.6 49.5----
2026-09-01 04:36 pmNNE 13.0 22.0----29.99- 61.7 49.8----
2026-09-01 04:30 pm N 15.9 20.0----29.98- 62.2 50.0----
2026-09-01 04:24 pm N 15.9 28.0----29.98- 61.9 49.8----
2026-09-01 04:18 pm N 19.0 25.1----29.98-- 50.0----
2026-09-01 04:12 pm N 21.0 28.0----29.98-- 50.0----
2026-09-01 04:06 pm N 19.0 27.0----29.98-- 49.5----
2026-09-01 04:00 pm N 22.0 27.0----29.98+0.01 61.9 50.4----
2026-09-01 03:54 pm N 20.0 25.1----29.98- 62.2 50.0----
2026-09-01 03:48 pm N 20.0 24.1----29.98-- 49.6----
2026-09-01 03:42 pm N 17.1 26.0----29.98-- 50.0----
2026-09-01 03:36 pm N 15.0 27.0----29.99-- 49.8----
2026-09-01 03:30 pm N 19.0 26.0----29.98- 63.1 49.6----
2026-09-01 03:24 pm N 19.0 26.0----29.98- 64.6 49.6----
2026-09-01 03:18 pm N 15.9 28.9----29.98-- 49.5----
2026-09-01 03:12 pm N 14.0 27.0----29.98-- 50.0----
2026-09-01 03:06 pm N 15.9 28.0----29.98-- 49.8----
2026-09-01 03:00 pm N 15.0 27.0----29.98+0.01 66.6 49.8----
2026-09-01 02:54 pm N 18.1 24.1----29.98- 66.9 50.0----
2026-09-01 02:48 pm N 15.0 24.1----29.98- 66.2 49.8----
2026-09-01 02:42 pm N 9.9 25.1----29.98- 66.0 50.0----
2026-09-01 02:36 pm N 13.0 17.1----29.98- 65.8 49.8----
2026-09-01 02:30 pm-------29.99- 65.3 49.8----
2026-09-01 02:24 pm-------29.99- 68.2 49.8----
2026-09-01 02:18 pmSSE 7.0 13.0----29.99-- 49.6----
2026-09-01 02:12 pm N 8.9 17.1----29.99-- 49.5----
2026-09-01 02:06 pm N 18.1 22.9----29.98-- 49.8----
2026-09-01 02:00 pmNNE 15.9 22.9----29.98+0.01 65.3 49.8----
2026-09-01 01:54 pm N 13.0 19.0----29.98- 65.3 49.3----
2026-09-01 01:48 pmNNE 18.1 22.0----29.98- 64.8 49.8----
2026-09-01 01:42 pm N 19.0 25.1----29.98- 66.2 49.8----
2026-09-01 01:36 pm N 17.1 21.0----29.98- 65.1 49.8----
2026-09-01 01:30 pm N 15.9 20.0----29.98- 65.3 48.9----
2026-09-01 01:24 pmNNE 14.0 19.0----29.97- 66.4 48.9----
2026-09-01 01:18 pm N 9.9 21.0----29.97-- 49.5----
2026-09-01 01:12 pm N 14.0 26.0----29.97-- 49.5----
2026-09-01 01:06 pm N 12.0 34.0----29.97-- 49.3----
2026-09-01 01:00 pmNNE 14.0 29.9----29.97+0.02 65.7 49.6----
2026-09-01 12:54 pm N 15.9 28.9----29.97- 65.8 49.3----
2026-09-01 12:48 pm N 14.0 25.1----29.97- 65.7 49.5----
2026-09-01 12:42 pmNNE 13.0 28.0----29.98- 64.6 49.5----
2026-09-01 12:36 pm N 13.0 25.1----29.98- 64.8 49.3----
2026-09-01 12:30 pm N 17.1 33.0----29.98- 64.9 49.5----
2026-09-01 12:24 pmNNE 14.0 28.0----29.98- 65.1 49.5----
2026-09-01 12:18 pm N 17.1 28.9----29.98-- 49.5----
2026-09-01 12:12 pm N 9.9 33.0----29.98-- 49.5----
2026-09-01 12:06 pm N 15.9 28.9----29.98-- 49.5----
2026-09-01 12:00 pm N 15.0 22.9----29.97+0.05 64.4 49.3----
2026-09-01 11:54 am N 9.9 21.0----29.97- 64.0 49.8----
2026-09-01 11:48 am N 5.1 24.1----29.98- 64.4 49.6----
2026-09-01 11:42 am N 13.0 26.0----29.97- 63.9 49.3----
2026-09-01 11:36 am N 12.0 22.9----29.98- 63.5 49.5----
2026-09-01 11:30 am N 15.0 29.9----29.98- 63.5 49.5----
2026-09-01 11:24 am N 11.1 22.9----29.98- 62.8 49.3----
2026-09-01 11:18 am N 14.0 22.0----29.97-- 49.3----
2026-09-01 11:12 am N 18.1 24.1----29.97-- 48.7----
2026-09-01 11:06 am N 15.0 26.0----29.97-- 49.1----
2026-09-01 11:00 am N 13.0 20.0----29.97+0.07 62.2 49.1----
2026-09-01 10:54 am N 15.0 22.9----29.97- 60.6 49.5----
2026-09-01 10:48 amNNE 26.0 32.1----29.96- 60.4 49.1----
2026-09-01 10:42 amNNE 21.0 31.1----29.97- 60.8 49.1----
2026-09-01 10:36 amENE 13.0 27.0----29.96- 63.7 49.1----
2026-09-01 10:30 am N 19.0 33.0----29.95- 63.9 49.3----
2026-09-01 10:24 am N 15.9 22.9----29.96- 61.9 49.3----
2026-09-01 10:18 am N 14.0 25.1----29.96-- 48.9----
2026-09-01 10:12 am N 12.0 28.0----29.96-- 48.9----
2026-09-01 10:06 amNNE 15.0 24.1----29.95-- 49.3----
2026-09-01 10:00 am N 18.1 24.1----29.95+0.08 62.4 48.9----
2026-09-01 09:54 am N 18.1 25.1----29.95- 62.2 49.1----
2026-09-01 09:48 am N 18.1 25.1----29.95- 62.6 48.7----
2026-09-01 09:42 am N 18.1 27.0----29.95- 65.5 48.9----
2026-09-01 09:36 am N 17.1 28.0----29.95- 64.0 49.1----
2026-09-01 09:30 amNNE 19.0 33.0----29.95- 62.8 49.1----
2026-09-01 09:24 am N 20.0 34.0----29.94- 63.1 48.7----
2026-09-01 09:18 am N 13.0 27.0----29.94-- 49.1----
2026-09-01 09:12 am N 15.9 28.0----29.93-- 49.1----
2026-09-01 09:06 am N 19.0 36.9----29.93-- 49.1----
2026-09-01 09:00 amNNW 21.0 45.1----29.92+0.03 66.6 49.1----
2026-09-01 08:54 am N 18.1 32.1----29.92- 67.3 49.1----
2026-09-01 08:48 am N 14.0 26.0----29.91-- 49.3----
2026-09-01 08:42 am N 19.0 33.0----29.91-- 49.1----
2026-09-01 08:36 am N 13.0 29.9----29.91-- 49.1----
2026-09-01 08:30 am N 18.1 29.9----29.90- 67.5 49.1----
2026-09-01 08:24 am N 24.1 41.0----29.90- 67.3 49.1----
2026-09-01 08:18 am N 15.0 33.0----29.90-- 49.1----
2026-09-01 08:12 am NE 4.1 17.1----29.90-- 49.3----
2026-09-01 08:06 amNNE 15.0 26.0----29.90-- 49.3----
2026-09-01 08:00 amNNE 14.0 28.0----29.90+0.03 63.3 49.3----
2026-09-01 07:54 am N 21.0 28.0----29.90- 63.5 49.1----
2026-09-01 07:48 am N 13.0 25.1----29.90- 64.4 49.1----
2026-09-01 07:42 am N 15.9 34.0----29.90- 65.3 48.9----
2026-09-01 07:36 amNNE 20.0 32.1----29.89- 63.3 49.1----
2026-09-01 07:30 am N 21.0 36.9----29.89- 64.8 49.1----
2026-09-01 07:24 am N 18.1 32.1----29.89- 64.9 49.3----
2026-09-01 07:18 am N 22.9 38.1----29.89-- 49.1----
2026-09-01 07:12 amNNE 15.0 32.1----29.89-- 49.3----
2026-09-01 07:06 am N 22.9 38.1----29.88-- 49.5----
2026-09-01 07:00 am N 22.9 40.0----29.87+0.01 66.9 49.5----
2026-09-01 06:54 am N 19.0 40.0----29.88- 68.5 49.6----
2026-09-01 06:48 amNNW 22.0 41.0----29.88-- 49.1----
2026-09-01 06:42 am N 20.0 38.1----29.88-- 48.6----
2026-09-01 06:36 amNNW 21.0 36.9----29.89-- 49.3----
2026-09-01 06:30 amNNW 21.0 40.0----29.89- 67.6 48.7----
2026-09-01 06:24 am N 24.1 41.0----29.88- 66.7 49.5----
2026-09-01 06:18 am N 19.0 41.0----29.88-- 48.9----
2026-09-01 06:12 am N 24.1 44.1----29.88-- 48.6----
2026-09-01 06:06 am N 22.0 41.0----29.88-- 48.4----
2026-09-01 06:00 amNNW 24.1 59.1----29.89+0.00 67.8 48.7----
2026-09-01 05:54 am N 28.0 48.0----29.87- 66.9 48.4----
2026-09-01 05:48 am N 24.1 42.9----29.89- 67.1 48.6----
2026-09-01 05:42 am N 18.1 36.9----29.88- 65.5 49.5----
2026-09-01 05:36 am N 22.0 33.0----29.88- 63.7 48.9----
2026-09-01 05:30 am N 22.0 35.0----29.88- 65.1 48.4----
2026-09-01 05:24 am N 17.1 36.9----29.88- 65.5 48.4----
2026-09-01 05:18 am N 19.0 39.0----29.88-- 48.9----
2026-09-01 05:12 am N 21.0 38.1----29.88-- 48.7----
2026-09-01 05:06 am N 22.0 32.1----29.88-- 49.1----
2026-09-01 05:00 am N 17.1 27.0----29.87-0.04 67.6 49.1----
2026-09-01 04:54 amNNE 12.0 25.1----29.87- 69.3 48.9----
2026-09-01 04:48 am E 7.0 19.0----29.87-- 48.9----
2026-09-01 04:42 am NE 15.9 25.1----29.86-- 49.1----
2026-09-01 04:36 am NE 11.1 20.0----29.86-- 49.3----
2026-09-01 04:30 am NE 14.0 26.0----29.86- 70.0 48.6----
2026-09-01 04:24 amENE 9.9 35.0----29.86- 69.6 48.4----
2026-09-01 04:18 amNNE 12.0 29.9----29.86-- 48.6----
2026-09-01 04:12 amNNE 13.0 28.0----29.86-- 49.3----
2026-09-01 04:06 am E 7.0 22.9----29.86-- 49.1----
2026-09-01 04:00 am E 12.0 22.0----29.86-0.09 68.9 48.6----
2026-09-01 03:54 am NE 8.9 26.0----29.87- 68.5 48.9----